Time;durP1;ratioP1;P1;durP2;ratioP2;P2;SDS_P1;SDS_P2;PMS_P1;PMS_P2;Temp;Humidity;BMP_temperature;BMP_pressure;BME280_temperature;BME280_humidity;BME280_pressure;Samples;Min_cycle;Max_cycle;Signal;HPM_P1;HPM_P2
2021/11/19 00:00:16;;;;;;;58.90;35.40;;;;;;;6.34;69.57;100748.55;1782778;80;20956;-69
2021/11/19 00:02:43;;;;;;;64.42;34.60;;;;;;;6.31;69.58;100750.31;1782905;80;21059;-67
2021/11/19 00:05:11;;;;;;;58.95;35.45;;;;;;;6.30;69.65;100747.38;1783155;80;21137;-69
2021/11/19 00:07:40;;;;;;;62.88;34.50;;;;;;;6.32;69.59;100750.11;1782730;80;20991;-67
2021/11/19 00:10:09;;;;;;;59.75;34.23;;;;;;;6.30;69.58;100742.08;1783047;80;21451;-68
2021/11/19 00:12:39;;;;;;;62.50;35.90;;;;;;;6.28;69.45;100739.63;1782757;79;21546;-68
2021/11/19 00:15:08;;;;;;;61.65;35.78;;;;;;;6.27;69.39;100741.19;1782924;80;21011;-68
2021/11/19 00:17:35;;;;;;;56.30;33.50;;;;;;;6.26;69.33;100733.75;1782762;80;21091;-68
2021/11/19 00:20:06;;;;;;;58.25;34.23;;;;;;;6.20;69.28;100729.34;1781254;79;20983;-68
2021/11/19 00:22:32;;;;;;;55.10;32.53;;;;;;;6.10;69.33;100726.41;1782641;80;21537;-67
2021/11/19 00:24:59;;;;;;;57.78;33.50;;;;;;;6.00;69.39;100720.83;1782851;80;20957;-68
2021/11/19 00:27:25;;;;;;;56.53;32.85;;;;;;;5.92;69.38;100717.91;1782704;80;20983;-68
2021/11/19 00:29:52;;;;;;;56.83;32.13;;;;;;;5.90;69.28;100721.84;1782823;80;21146;-68
2021/11/19 00:32:19;;;;;;;56.85;33.67;;;;;;;5.84;69.10;100719.03;1782671;80;21083;-67
2021/11/19 00:34:48;;;;;;;59.93;34.08;;;;;;;5.80;69.01;100725.81;1782705;80;21051;-67
2021/11/19 00:37:19;;;;;;;53.83;31.35;;;;;;;5.74;69.02;100719.26;1782581;80;21124;-67
2021/11/19 00:39:48;;;;;;;56.00;32.45;;;;;;;5.69;69.00;100720.42;1781705;79;20983;-67
2021/11/19 00:42:14;;;;;;;56.63;32.50;;;;;;;5.63;69.10;100716.31;1782632;80;21819;-67
2021/11/19 00:44:41;;;;;;;55.17;32.98;;;;;;;5.60;69.24;100715.42;1782994;80;21090;-67
2021/11/19 00:47:10;;;;;;;57.80;33.73;;;;;;;5.57;69.34;100710.56;1782594;80;21067;-67
2021/11/19 00:49:38;;;;;;;57.00;31.77;;;;;;;5.53;69.52;100708.58;1783050;80;20952;-67
2021/11/19 00:52:07;;;;;;;53.75;32.03;;;;;;;5.54;69.67;100700.92;1782700;80;21487;-68
2021/11/19 00:54:35;;;;;;;52.08;29.32;;;;;;;5.53;69.84;100702.77;1782633;80;21106;-68
2021/11/19 00:57:06;;;;;;;50.05;28.62;;;;;;;5.52;70.07;100702.97;1782642;80;21475;-68
2021/11/19 00:59:34;;;;;;;52.25;31.27;;;;;;;5.49;70.33;100694.94;1783029;80;21426;-67
2021/11/19 01:02:06;;;;;;;53.90;30.27;;;;;;;5.47;70.53;100687.74;1782553;80;20988;-68
2021/11/19 01:04:33;;;;;;;49.15;28.25;;;;;;;5.51;70.76;100692.09;1781950;80;21039;-67
2021/11/19 01:07:00;;;;;;;55.95;31.50;;;;;;;5.53;71.03;100682.89;1782568;80;21127;-67
2021/11/19 01:09:31;;;;;;;49.98;30.10;;;;;;;5.54;71.22;100677.88;1782938;80;20964;-67
2021/11/19 01:12:00;;;;;;;54.60;30.30;;;;;;;5.56;71.34;100675.00;1782667;80;21047;-67
2021/11/19 01:14:35;;;;;;;49.45;30.40;;;;;;;5.59;71.48;100674.07;1782945;80;20976;-67
2021/11/19 01:17:13;;;;;;;48.42;29.42;;;;;;;5.66;71.51;100675.32;1780028;80;21043;-69
2021/11/19 01:19:51;;;;;;;48.00;27.00;;;;;;;5.71;71.47;100670.14;1783159;80;21152;-68
2021/11/19 01:22:28;;;;;;;48.35;27.65;;;;;;;5.73;71.39;100668.09;1756079;81;20941;-68
2021/11/19 01:24:55;;;;;;;46.55;27.05;;;;;;;5.72;71.35;100667.78;1782993;80;21002;-68
2021/11/19 01:27:22;;;;;;;48.42;29.10;;;;;;;5.74;71.43;100664.92;1782687;80;20976;-68
2021/11/19 01:29:49;;;;;;;49.25;29.12;;;;;;;5.78;71.43;100652.32;1782816;80;20982;-67
2021/11/19 01:32:24;;;;;;;46.42;28.40;;;;;;;5.82;71.40;100653.52;1782824;79;21114;-68
2021/11/19 01:35:07;;;;;;;48.92;28.95;;;;;;;5.87;71.37;100658.14;1781821;79;21110;-68
2021/11/19 01:37:36;;;;;;;42.45;26.33;;;;;;;5.96;71.31;100657.36;1779981;79;20952;-68
2021/11/19 01:40:12;;;;;;;53.65;29.37;;;;;;;6.01;71.20;100654.30;1781413;80;21053;-68
2021/11/19 01:42:45;;;;;;;47.75;28.40;;;;;;;6.08;71.04;100649.72;1782006;80;20995;-68
2021/11/19 01:45:20;;;;;;;49.58;30.00;;;;;;;6.18;70.88;100652.35;1782961;80;21089;-68
2021/11/19 01:47:53;;;;;;;43.17;27.32;;;;;;;6.25;70.72;100647.76;1782598;80;21507;-68
2021/11/19 01:50:26;;;;;;;44.53;27.82;;;;;;;6.31;70.57;100643.69;1782646;80;21051;-67
2021/11/19 01:53:12;;;;;;;44.77;27.65;;;;;;;6.33;70.41;100642.15;1782816;80;21003;-67
2021/11/19 01:55:57;;;;;;;44.65;28.75;;;;;;;6.34;70.35;100640.58;1779882;79;21620;-68
2021/11/19 01:58:42;;;;;;;42.85;26.90;;;;;;;6.41;70.32;100637.83;1780944;79;21136;-68
2021/11/19 02:01:20;;;;;;;42.27;26.27;;;;;;;6.46;70.17;100636.64;1781645;79;21023;-69
2021/11/19 02:03:53;;;;;;;44.35;27.55;;;;;;;6.52;69.98;100636.26;1781849;79;21057;-67
2021/11/19 02:06:29;;;;;;;43.38;27.40;;;;;;;6.52;69.88;100631.75;1782898;80;21036;-67
2021/11/19 02:09:00;;;;;;;45.63;28.92;;;;;;;6.49;69.70;100627.42;1780348;80;21149;-67
2021/11/19 02:11:44;;;;;;;48.23;29.40;;;;;;;6.46;69.54;100623.37;1781378;80;21786;-67
2021/11/19 02:14:32;;;;;;;43.78;26.82;;;;;;;6.47;69.35;100620.20;1781345;79;21372;-67
2021/11/19 02:17:00;;;;;;;45.92;28.02;;;;;;;6.40;69.31;100616.84;1782617;80;20996;-67
2021/11/19 02:19:38;;;;;;;40.75;26.65;;;;;;;6.37;69.31;100615.45;1783202;80;21551;-68
2021/11/19 02:22:10;;;;;;;44.73;27.20;;;;;;;6.40;69.27;100614.19;1782073;79;21081;-68
2021/11/19 02:24:48;;;;;;;36.98;24.35;;;;;;;6.47;69.12;100613.56;1782749;79;21066;-68
2021/11/19 02:27:24;;;;;;;40.52;25.35;;;;;;;6.46;69.04;100618.07;1776652;79;21052;-68
2021/11/19 02:30:02;;;;;;;38.23;24.12;;;;;;;6.44;69.06;100616.15;1780791;79;21004;-67
2021/11/19 02:32:35;;;;;;;39.42;23.10;;;;;;;6.41;69.13;100615.80;1783808;79;21035;-67
2021/11/19 02:35:03;;;;;;;32.50;22.73;;;;;;;6.37;69.22;100610.14;1783313;80;22048;-68
2021/11/19 02:37:35;;;;;;;40.50;24.02;;;;;;;6.33;69.39;100611.12;1750783;80;21486;-68
2021/11/19 02:40:12;;;;;;;;;;;;;;;6.26;69.53;100609.09;1784286;79;21039;-68
2021/11/19 02:42:51;;;;;;;36.25;22.17;;;;;;;6.23;69.80;100617.50;1779054;80;20140;-67
2021/11/19 02:45:23;;;;;;;31.62;21.05;;;;;;;6.17;70.10;100623.70;1782842;80;21019;-67
2021/11/19 02:47:51;;;;;;;32.48;21.10;;;;;;;6.16;70.45;100618.12;1790880;79;21010;-68
2021/11/19 02:50:20;;;;;;;31.35;19.75;;;;;;;6.14;70.68;100614.06;1796442;79;21173;-68
2021/11/19 02:52:51;;;;;;;28.90;19.73;;;;;;;6.14;70.85;100610.89;1796816;79;20982;-68
2021/11/19 02:55:23;;;;;;;30.23;20.15;;;;;;;6.17;70.91;100603.00;1796317;79;21053;-68
2021/11/19 02:57:52;;;;;;;25.17;18.57;;;;;;;6.11;71.09;100604.71;1783470;79;21089;-68
2021/11/19 03:00:27;;;;;;;26.20;18.32;;;;;;;6.14;71.17;100598.95;1782910;80;20959;-68
2021/11/19 03:02:54;;;;;;;29.12;18.07;;;;;;;6.16;71.16;100600.88;1783068;80;21134;-68
2021/11/19 03:05:23;;;;;;;25.40;16.97;;;;;;;6.20;71.07;100603.36;1781437;79;21573;-68
2021/11/19 03:07:52;;;;;;;28.80;18.55;;;;;;;6.21;70.98;100610.27;1782966;80;21035;-69
2021/11/19 03:10:36;;;;;;;24.77;17.32;;;;;;;6.23;70.96;100614.04;1782582;80;20964;-68
2021/11/19 03:13:05;;;;;;;24.77;16.77;;;;;;;6.25;70.84;100620.74;1779177;80;21043;-68
2021/11/19 03:15:39;;;;;;;23.83;16.30;;;;;;;6.26;70.70;100610.41;1779774;80;21151;-68
2021/11/19 03:18:10;;;;;;;23.30;16.37;;;;;;;6.28;70.52;100604.87;1780044;80;21051;-68
2021/11/19 03:20:36;;;;;;;23.40;16.27;;;;;;;6.26;70.32;100597.16;1751458;80;22218;-68
2021/11/19 03:23:03;;;;;;;24.65;16.05;;;;;;;6.25;70.17;100584.94;1780091;80;20995;-68
2021/11/19 03:25:36;;;;;;;28.07;17.50;;;;;;;6.21;70.06;100588.25;1779749;80;21576;-67
2021/11/19 03:28:08;;;;;;;25.37;16.67;;;;;;;6.28;69.87;100587.62;1780357;80;21144;-67
2021/11/19 03:30:37;;;;;;;21.25;14.65;;;;;;;6.30;69.75;100574.95;1780219;80;21557;-67
2021/11/19 03:33:06;;;;;;;23.20;16.00;;;;;;;6.31;69.64;100561.97;1780200;80;21007;-67
2021/11/19 03:35:33;;;;;;;25.95;16.77;;;;;;;6.24;69.63;100554.12;1779628;80;21067;-68
2021/11/19 03:38:01;;;;;;;23.20;16.23;;;;;;;6.18;69.63;100551.57;1780153;80;20953;-67
2021/11/19 03:40:35;;;;;;;23.42;15.60;;;;;;;6.09;69.71;100549.27;1779719;80;21240;-68
2021/11/19 03:43:06;;;;;;;25.25;16.57;;;;;;;6.03;69.69;100544.06;1779081;80;21039;-68
2021/11/19 03:45:39;;;;;;;21.85;14.28;;;;;;;5.97;69.84;100547.62;1779552;80;21096;-68
2021/11/19 03:48:06;;;;;;;24.75;16.73;;;;;;;5.94;70.03;100548.06;1780165;80;20955;-68
2021/11/19 03:50:40;;;;;;;22.98;17.07;;;;;;;5.92;70.27;100550.89;1779639;80;21165;-68
2021/11/19 03:53:07;;;;;;;25.25;17.35;;;;;;;5.94;70.43;100562.13;1780266;80;21807;-68
2021/11/19 03:55:37;;;;;;;26.35;17.05;;;;;;;5.95;70.59;100551.00;1779812;80;21541;-68
2021/11/19 03:58:04;;;;;;;26.82;18.02;;;;;;;5.99;70.63;100549.02;1780054;80;21051;-68
2021/11/19 04:00:42;;;;;;;25.72;17.45;;;;;;;6.04;70.64;100549.64;1779811;80;21063;-68
2021/11/19 04:03:10;;;;;;;27.02;16.82;;;;;;;6.06;70.60;100536.98;1780474;80;21023;-68
2021/11/19 04:05:39;;;;;;;25.80;17.42;;;;;;;6.08;70.56;100554.78;1797288;79;21767;-68
2021/11/19 04:08:07;;;;;;;27.15;17.95;;;;;;;6.07;70.56;100551.32;1812628;79;20946;-68
2021/11/19 04:10:38;;;;;;;26.73;18.55;;;;;;;6.10;70.55;100542.11;1810947;79;21040;-68
2021/11/19 04:13:06;;;;;;;29.98;18.48;;;;;;;6.10;70.47;100538.94;1812781;79;21021;-68
2021/11/19 04:15:39;;;;;;;27.30;18.60;;;;;;;6.08;70.44;100534.37;1812194;79;21099;-68
2021/11/19 04:18:07;;;;;;;27.60;18.35;;;;;;;6.06;70.42;100527.17;1791078;79;21923;-68
2021/11/19 04:20:34;;;;;;;24.07;16.27;;;;;;;6.10;70.45;100527.53;1778542;80;21038;-68
2021/11/19 04:23:00;;;;;;;27.40;16.87;;;;;;;6.17;70.38;100527.42;1780541;80;21038;-68
2021/11/19 04:25:29;;;;;;;28.00;18.73;;;;;;;6.19;70.30;100522.19;1779606;80;21101;-68
2021/11/19 04:27:56;;;;;;;30.85;20.08;;;;;;;6.21;70.27;100522.75;1780663;80;20944;-68
2021/11/19 04:30:32;;;;;;;29.45;18.50;;;;;;;6.24;70.28;100518.31;1775717;80;21989;-67
2021/11/19 04:32:59;;;;;;;24.67;16.35;;;;;;;6.31;70.26;100507.07;1780249;80;21003;-68
2021/11/19 04:35:27;;;;;;;27.58;18.52;;;;;;;6.38;70.17;100508.81;1779714;80;21507;-68
2021/11/19 04:37:55;;;;;;;25.12;18.40;;;;;;;6.42;70.07;100508.66;1780173;80;21175;-68
2021/11/19 04:40:23;;;;;;;28.45;18.27;;;;;;;6.48;69.99;100511.69;1779833;79;21179;-68
2021/11/19 04:42:50;;;;;;;26.70;17.57;;;;;;;6.55;69.92;100507.10;1780172;80;21076;-68
2021/11/19 04:45:23;;;;;;;25.65;17.52;;;;;;;6.60;69.80;100499.23;1779934;80;21062;-68
2021/11/19 04:47:50;;;;;;;22.82;16.73;;;;;;;6.69;69.71;100491.22;1780110;80;21035;-68
2021/11/19 04:50:19;;;;;;;25.85;18.10;;;;;;;6.79;69.58;100482.66;1780063;80;20972;-68
2021/11/19 04:52:46;;;;;;;25.88;17.70;;;;;;;6.90;69.43;100479.17;1780016;80;20995;-68
2021/11/19 04:55:14;;;;;;;30.65;19.25;;;;;;;7.00;69.20;100471.41;1780119;80;21910;-68
2021/11/19 04:57:41;;;;;;;23.20;17.40;;;;;;;7.06;69.00;100472.33;1779867;80;20956;-68
2021/11/19 05:00:14;;;;;;;27.62;18.85;;;;;;;7.13;68.73;100476.17;1780038;80;21007;-68
2021/11/19 05:02:43;;;;;;;26.20;17.55;;;;;;;7.16;68.51;100475.70;1773034;80;21059;-68
2021/11/19 05:05:12;;;;;;;26.75;18.00;;;;;;;7.19;68.30;100472.05;1777332;79;20964;-68
2021/11/19 05:07:40;;;;;;;27.40;18.80;;;;;;;7.21;68.13;100462.01;1779959;80;21123;-68
2021/11/19 05:10:09;;;;;;;27.45;18.42;;;;;;;7.21;67.95;100465.98;1779967;80;20980;-68
2021/11/19 05:12:41;;;;;;;23.18;16.80;;;;;;;7.11;67.64;100475.09;1780228;80;20972;-68
2021/11/19 05:15:11;;;;;;;23.65;16.57;;;;;;;6.98;67.63;100477.49;1779923;80;21003;-68
2021/11/19 05:17:40;;;;;;;24.05;17.25;;;;;;;6.89;67.70;100490.04;1780430;80;21431;-68
2021/11/19 05:20:10;;;;;;;25.37;18.07;;;;;;;6.79;67.80;100489.30;1778838;80;21124;-69
2021/11/19 05:22:37;;;;;;;25.75;17.77;;;;;;;6.68;67.80;100485.63;1778506;80;20940;-68
2021/11/19 05:25:06;;;;;;;23.67;16.05;;;;;;;6.60;67.93;100467.39;1778900;80;21565;-68
2021/11/19 05:27:34;;;;;;;26.20;17.57;;;;;;;6.60;68.07;100474.03;1780027;80;21004;-68
2021/11/19 05:30:05;;;;;;;30.20;17.82;;;;;;;6.58;68.05;100480.08;1780035;80;21725;-68
2021/11/19 05:32:35;;;;;;;23.55;15.70;;;;;;;6.55;68.12;100476.06;1777936;80;21012;-68
2021/11/19 05:35:04;;;;;;;26.15;17.30;;;;;;;6.56;68.15;100470.23;1780033;80;21035;-68
2021/11/19 05:37:31;;;;;;;23.98;17.62;;;;;;;6.55;68.09;100471.28;1779789;80;20944;-68
2021/11/19 05:39:57;;;;;;;27.15;17.42;;;;;;;6.56;68.10;100470.23;1780391;80;21483;-68
2021/11/19 05:42:25;;;;;;;24.05;16.67;;;;;;;6.57;67.98;100455.39;1779788;80;21602;-68
2021/11/19 05:44:52;;;;;;;24.63;16.73;;;;;;;6.55;67.87;100450.05;1780301;80;21701;-69
2021/11/19 05:47:20;;;;;;;24.05;16.25;;;;;;;6.52;67.80;100457.15;1775330;80;21022;-68
2021/11/19 05:49:50;;;;;;;24.15;15.55;;;;;;;6.48;67.77;100455.48;1779703;80;21051;-68
2021/11/19 05:52:18;;;;;;;23.85;16.90;;;;;;;6.49;67.76;100453.63;1780187;80;21432;-68
2021/11/19 05:54:45;;;;;;;23.42;16.27;;;;;;;6.42;67.68;100454.27;1780032;80;21054;-68
2021/11/19 05:57:13;;;;;;;24.65;16.50;;;;;;;6.36;67.76;100450.69;1779951;80;21790;-69
2021/11/19 05:59:40;;;;;;;21.52;15.28;;;;;;;6.36;67.82;100453.34;1780081;80;21657;-68
2021/11/19 06:02:13;;;;;;;25.05;17.30;;;;;;;6.37;67.79;100460.26;1779984;79;21179;-68
2021/11/19 06:04:42;;;;;;;23.27;16.32;;;;;;;6.30;67.79;100452.41;1773243;80;21062;-68
2021/11/19 06:07:27;;;;;;;26.35;16.90;;;;;;;6.27;67.80;100455.53;1780250;80;21419;-68
2021/11/19 06:09:55;;;;;;;25.10;17.37;;;;;;;6.25;67.84;100449.66;1780188;80;21130;-68
2021/11/19 06:12:29;;;;;;;22.98;16.07;;;;;;;6.21;67.86;100448.48;1780562;80;20944;-68
2021/11/19 06:15:00;;;;;;;25.10;15.85;;;;;;;6.22;67.94;100439.52;1780000;80;20964;-68
2021/11/19 06:17:39;;;;;;;25.52;16.52;;;;;;;6.20;67.96;100432.30;1779972;80;21040;-68
2021/11/19 06:20:16;;;;;;;23.75;16.23;;;;;;;6.19;68.01;100433.34;1780212;80;21023;-68
2021/11/19 06:22:50;;;;;;;23.32;16.30;;;;;;;6.19;68.06;100433.34;1780473;80;21114;-68
2021/11/19 06:25:23;;;;;;;23.62;15.70;;;;;;;6.14;68.17;100430.56;1780265;80;21079;-68
2021/11/19 06:27:52;;;;;;;20.70;15.13;;;;;;;6.14;68.25;100427.91;1779428;80;20972;-68
2021/11/19 06:30:21;;;;;;;23.22;15.83;;;;;;;6.10;68.42;100420.13;1751778;80;21558;-67
2021/11/19 06:32:48;;;;;;;23.05;16.17;;;;;;;6.03;68.54;100415.47;1780413;80;21462;-68
2021/11/19 06:35:15;;;;;;;23.30;15.95;;;;;;;6.00;68.67;100414.08;1778827;80;21162;-68
2021/11/19 06:37:43;;;;;;;24.02;16.40;;;;;;;6.03;68.77;100414.14;1778853;80;21533;-68
2021/11/19 06:40:17;;;;;;;22.70;16.40;;;;;;;6.04;68.86;100415.75;1779022;80;21011;-68
2021/11/19 06:42:46;;;;;;;23.02;16.27;;;;;;;6.03;68.98;100406.99;1775864;80;21043;-69
2021/11/19 06:45:25;;;;;;;23.32;15.80;;;;;;;6.05;69.05;100398.80;1711637;83;21577;-69
2021/11/19 06:48:03;;;;;;;22.22;15.55;;;;;;;6.08;69.07;100398.33;1778441;80;21146;-69
2021/11/19 06:50:35;;;;;;;26.73;17.07;;;;;;;6.08;69.12;100399.66;1748811;80;21098;-68
2021/11/19 06:53:10;;;;;;;24.67;16.37;;;;;;;6.08;69.09;100395.69;1749580;80;20951;-69
2021/11/19 06:55:55;;;;;;;18.65;14.05;;;;;;;6.06;69.12;100385.84;1775049;80;21522;-69
2021/11/19 06:58:26;;;;;;;22.80;15.65;;;;;;;6.08;69.15;100390.38;1748640;80;20964;-69
2021/11/19 07:00:54;;;;;;;25.12;15.40;;;;;;;6.04;69.18;100383.93;1780145;80;21055;-68
2021/11/19 07:03:21;;;;;;;21.60;14.90;;;;;;;6.04;69.28;100372.00;1779938;80;21549;-68
2021/11/19 07:05:48;;;;;;;22.90;16.42;;;;;;;6.08;69.30;100370.49;1780131;80;21055;-69
2021/11/19 07:08:15;;;;;;;19.73;14.38;;;;;;;6.12;69.35;100367.69;1779951;80;20952;-68
2021/11/19 07:10:46;;;;;;;20.88;15.10;;;;;;;6.17;69.34;100355.84;1780142;80;21067;-68
2021/11/19 07:13:13;;;;;;;23.27;16.23;;;;;;;6.20;69.28;100358.56;1780214;80;21975;-68
2021/11/19 07:15:41;;;;;;;22.55;16.45;;;;;;;6.23;69.32;100352.80;1779940;80;21091;-67
2021/11/19 07:18:08;;;;;;;19.15;14.20;;;;;;;6.25;69.31;100348.05;1759103;80;21080;-68
2021/11/19 07:20:36;;;;;;;20.60;15.53;;;;;;;6.31;69.39;100343.94;1735080;80;21073;-68
2021/11/19 07:23:05;;;;;;;20.88;14.98;;;;;;;6.39;69.36;100335.36;1782575;78;20930;-68
2021/11/19 07:25:33;;;;;;;20.97;15.60;;;;;;;6.47;69.29;100346.91;1782435;80;21966;-68
2021/11/19 07:28:01;;;;;;;22.00;16.12;;;;;;;6.52;69.24;100337.74;1783086;80;21015;-68
2021/11/19 07:30:45;;;;;;;23.62;16.85;;;;;;;6.56;69.16;100338.87;1782883;80;21051;-68
2021/11/19 07:33:15;;;;;;;22.22;15.90;;;;;;;6.56;69.12;100333.05;1782893;80;20943;-67
2021/11/19 07:35:45;;;;;;;19.52;15.08;;;;;;;6.58;69.10;100337.61;1778071;80;21151;-67
2021/11/19 07:38:21;;;;;;;22.67;15.90;;;;;;;6.61;69.04;100336.31;1781304;80;21178;-67
2021/11/19 07:41:00;;;;;;;21.75;16.30;;;;;;;6.58;68.94;100336.28;1781216;80;21601;-67
2021/11/19 07:43:35;;;;;;;22.20;15.83;;;;;;;6.53;68.94;100332.19;1777231;79;21438;-68
2021/11/19 07:46:03;;;;;;;23.00;16.95;;;;;;;6.51;69.00;100332.93;1766881;79;21177;-69
2021/11/19 07:48:34;;;;;;;24.60;16.37;;;;;;;6.52;69.09;100328.45;1781335;80;21466;-68
2021/11/19 07:51:06;;;;;;;19.70;14.83;;;;;;;6.56;69.19;100329.59;1782120;79;21732;-69
2021/11/19 07:53:33;;;;;;;21.57;16.00;;;;;;;6.61;69.25;100321.70;1782946;80;20987;-68
2021/11/19 07:56:01;;;;;;;22.52;16.27;;;;;;;6.64;69.27;100323.09;1782969;80;22278;-68
2021/11/19 07:58:28;;;;;;;18.70;14.58;;;;;;;6.70;69.32;100318.97;1782879;80;21557;-68
2021/11/19 08:00:55;;;;;;;21.55;16.15;;;;;;;6.76;69.36;100316.70;1782868;80;21201;-68
2021/11/19 08:03:22;;;;;;;21.65;16.12;;;;;;;6.83;69.38;100315.23;1782940;80;21085;-69
2021/11/19 08:05:54;;;;;;;22.85;16.73;;;;;;;6.88;69.28;100310.02;1782442;80;21511;-68
2021/11/19 08:08:27;;;;;;;22.30;15.78;;;;;;;6.90;69.29;100304.46;1783101;80;20960;-70
2021/11/19 08:10:56;;;;;;;23.40;17.02;;;;;;;6.93;69.27;100300.80;1781911;80;21030;-68
2021/11/19 08:13:23;;;;;;;21.77;17.20;;;;;;;6.95;69.26;100301.91;1782868;80;21096;-68
2021/11/19 08:15:51;;;;;;;22.00;15.63;;;;;;;6.99;69.30;100307.02;1781482;80;21034;-68
2021/11/19 08:18:25;;;;;;;19.80;15.38;;;;;;;7.06;69.31;100298.37;1782551;80;21008;-68
2021/11/19 08:20:54;;;;;;;21.65;15.65;;;;;;;7.11;69.26;100301.13;1782642;80;20992;-68
2021/11/19 08:23:25;;;;;;;23.57;16.55;;;;;;;7.16;69.24;100293.23;1782419;80;20998;-68
2021/11/19 08:25:52;;;;;;;;;;;;;;;7.23;69.22;100279.27;1785436;79;21043;-68
2021/11/19 08:28:19;;;;;;;17.67;13.62;;;;;;;7.26;69.18;100277.45;1783047;80;21129;-68
2021/11/19 08:30:49;;;;;;;21.77;16.65;;;;;;;7.30;69.15;100271.13;1782490;80;21051;-69
2021/11/19 08:33:16;;;;;;;23.30;16.55;;;;;;;7.34;69.10;100270.95;1782956;80;21518;-69
2021/11/19 08:35:44;;;;;;;23.77;17.07;;;;;;;7.36;69.05;100272.02;1782718;80;21001;-68
2021/11/19 08:38:14;;;;;;;20.02;15.10;;;;;;;7.40;69.03;100258.53;1782868;80;21533;-70
2021/11/19 08:40:46;;;;;;;20.05;14.93;;;;;;;7.44;69.05;100259.67;1781836;80;21111;-70
2021/11/19 08:43:15;;;;;;;22.25;16.60;;;;;;;7.44;68.98;100255.16;1783575;80;21076;-70
2021/11/19 08:45:43;;;;;;;20.90;16.23;;;;;;;7.45;68.96;100247.45;1782913;80;21062;-70
2021/11/19 08:48:11;;;;;;;20.02;15.93;;;;;;;7.49;69.00;100242.45;1782803;80;20981;-70
2021/11/19 08:50:39;;;;;;;21.10;15.78;;;;;;;7.54;69.03;100240.42;1783055;80;22241;-70
2021/11/19 08:53:10;;;;;;;20.40;16.37;;;;;;;7.57;69.06;100222.12;1782859;80;21793;-70
2021/11/19 08:55:48;;;;;;;20.20;15.88;;;;;;;7.63;69.01;100220.32;1782672;80;21078;-70
2021/11/19 08:58:28;;;;;;;20.48;15.08;;;;;;;7.66;69.00;100211.33;1783031;80;20948;-69
2021/11/19 09:00:57;;;;;;;21.82;17.20;;;;;;;7.73;69.13;100206.66;1782753;80;20971;-70
2021/11/19 09:03:26;;;;;;;21.50;15.93;;;;;;;7.82;69.09;100198.23;1782745;80;20970;-70
2021/11/19 09:05:53;;;;;;;21.57;16.65;;;;;;;7.90;69.11;100202.61;1782784;80;21790;-69
2021/11/19 09:08:25;;;;;;;23.35;16.23;;;;;;;7.97;68.91;100190.45;1781843;80;21047;-70
2021/11/19 09:10:56;;;;;;;20.70;15.30;;;;;;;8.03;68.93;100185.97;1782804;80;20940;-69
2021/11/19 09:13:23;;;;;;;;;;;;;;;8.09;68.88;100183.13;1786038;80;21023;-67
2021/11/19 09:15:51;;;;;;;18.48;14.45;;;;;;;8.14;68.83;100176.54;1791303;79;20130;-69
2021/11/19 09:18:30;;;;;;;23.25;17.10;;;;;;;8.17;68.77;100169.39;1782805;80;21793;-68
2021/11/19 09:21:27;;;;;;;19.75;14.93;;;;;;;8.18;68.59;100170.19;1782769;80;20960;-70
2021/11/19 09:24:03;;;;;;;22.62;16.87;;;;;;;8.19;68.57;100160.64;1782895;80;21071;-70
2021/11/19 09:26:41;;;;;;;20.97;15.88;;;;;;;8.20;68.51;100162.24;1782434;80;21020;-69
2021/11/19 09:29:19;;;;;;;20.55;15.70;;;;;;;8.24;68.48;100161.21;1783273;80;21059;-68
2021/11/19 09:31:47;;;;;;;18.75;14.85;;;;;;;8.26;68.45;100157.78;1782826;80;21771;-69
2021/11/19 09:34:15;;;;;;;18.15;14.33;;;;;;;8.27;68.34;100147.41;1783018;80;21530;-69
2021/11/19 09:36:42;;;;;;;20.52;16.07;;;;;;;8.28;68.33;100152.20;1782611;80;20987;-70
2021/11/19 09:39:12;;;;;;;21.40;15.80;;;;;;;8.26;68.30;100146.31;1783074;80;21002;-70
2021/11/19 09:42:12;;;;;;;19.55;14.55;;;;;;;8.27;68.40;100142.63;1782526;80;21074;-69
2021/11/19 09:45:25;;;;;;;19.75;14.90;;;;;;;8.27;68.39;100133.30;1783128;80;21287;-69
2021/11/19 09:48:42;;;;;;;16.52;13.30;;;;;;;8.25;68.39;100134.88;1782547;80;37507;-69
2021/11/19 09:51:43;;;;;;;17.42;13.25;;;;;;;8.19;68.35;100126.56;1782767;79;21054;-69
2021/11/19 09:54:45;;;;;;;19.82;14.07;;;;;;;8.09;68.45;100119.28;1782711;80;20956;-69
2021/11/19 09:57:43;;;;;;;17.25;12.93;;;;;;;8.07;68.60;100116.09;1781869;80;21015;-68
2021/11/19 10:00:35;;;;;;;18.48;14.28;;;;;;;8.10;68.73;100110.27;1782777;80;20937;-70
2021/11/19 10:03:28;;;;;;;18.75;14.50;;;;;;;8.11;68.78;100105.22;1782698;80;21055;-68
2021/11/19 10:06:04;;;;;;;20.80;15.75;;;;;;;8.13;68.79;100091.15;1782791;80;21008;-68
2021/11/19 10:08:58;;;;;;;18.30;14.58;;;;;;;8.14;68.91;100087.42;1782784;80;21008;-69
2021/11/19 10:11:39;;;;;;;20.37;14.28;;;;;;;8.20;68.96;100084.30;1782722;80;21082;-70
2021/11/19 10:14:48;;;;;;;14.20;10.48;;;;;;;8.28;68.97;100069.72;1777401;80;21886;-70
2021/11/19 10:17:20;;;;;;;19.15;14.55;;;;;;;8.32;68.90;100062.83;1782657;80;21074;-69
2021/11/19 10:19:51;;;;;;;17.77;13.93;;;;;;;8.35;68.93;100054.34;1782742;80;21000;-68
2021/11/19 10:22:44;;;;;;;18.45;14.38;;;;;;;8.41;68.89;100057.34;1782782;80;21035;-69
2021/11/19 10:25:17;;;;;;;18.50;14.87;;;;;;;8.44;68.80;100046.19;1782845;80;21549;-68
2021/11/19 10:27:47;;;;;;;17.60;13.75;;;;;;;8.42;68.73;100045.63;1782917;80;21121;-69
2021/11/19 10:30:41;;;;;;;17.80;13.98;;;;;;;8.43;68.71;100040.61;1783031;80;21004;-70
2021/11/19 10:33:28;;;;;;;18.62;14.23;;;;;;;8.42;68.67;100037.65;1751552;82;20951;-69
2021/11/19 10:36:03;;;;;;;19.48;15.18;;;;;;;8.42;68.67;100033.16;1751695;82;21102;-68
2021/11/19 10:39:01;;;;;;;17.92;13.93;;;;;;;8.41;68.68;100026.74;1751954;82;21084;-70
2021/11/19 10:42:02;;;;;;;19.42;14.50;;;;;;;8.43;68.73;100024.64;1751724;82;21164;-69
2021/11/19 10:44:49;;;;;;;19.73;13.98;;;;;;;8.42;68.73;100020.35;1673472;84;21018;-70
2021/11/19 10:47:28;;;;;;;18.98;14.53;;;;;;;8.41;68.85;100013.44;1702267;84;21061;-68
2021/11/19 10:50:15;;;;;;;18.07;13.95;;;;;;;8.44;68.91;100007.07;1702468;84;21054;-68
2021/11/19 10:53:18;;;;;;;18.55;13.88;;;;;;;8.48;68.87;100004.70;1702212;84;21117;-69
2021/11/19 10:56:03;;;;;;;;;;;;;;;8.48;68.84;99999.38;1704991;84;21183;-69
2021/11/19 10:58:54;;;;;;;17.45;13.15;;;;;;;8.47;68.89;99996.98;1676372;84;20434;-70
2021/11/19 11:01:36;;;;;;;19.23;14.33;;;;;;;8.48;68.94;99991.92;1694635;84;21083;-70
2021/11/19 11:04:29;;;;;;;19.92;14.45;;;;;;;8.49;69.00;99989.02;1694639;84;21036;-68
2021/11/19 11:07:00;;;;;;;15.53;12.45;;;;;;;8.51;68.99;99989.55;1681814;84;21003;-69
2021/11/19 11:09:46;;;;;;;18.15;13.13;;;;;;;8.52;69.07;99978.37;1678150;84;21184;-68
2021/11/19 11:12:36;;;;;;;17.75;12.98;;;;;;;8.54;69.11;99978.39;1678728;84;21022;-69
2021/11/19 11:15:16;;;;;;;15.00;12.65;;;;;;;8.59;69.19;99970.45;1682059;84;21065;-68
2021/11/19 11:18:07;;;;;;;15.30;11.53;;;;;;;8.63;69.25;99966.73;1694330;84;21107;-67
2021/11/19 11:20:58;;;;;;;15.70;12.40;;;;;;;8.71;69.24;99965.44;1694738;84;21032;-68
2021/11/19 11:23:39;;;;;;;16.32;12.33;;;;;;;8.77;69.21;99963.87;1666433;84;21303;-69
2021/11/19 11:26:16;;;;;;;16.05;11.90;;;;;;;8.83;69.09;99962.04;1694334;84;21040;-68
2021/11/19 11:28:58;;;;;;;14.93;11.78;;;;;;;8.85;69.01;99958.06;1694536;84;21095;-69
2021/11/19 11:31:59;;;;;;;16.17;10.90;;;;;;;8.81;68.95;99950.84;1693137;84;21503;-68
2021/11/19 11:34:46;;;;;;;16.35;11.95;;;;;;;8.77;68.99;99951.09;1687987;84;21602;-69
2021/11/19 11:37:58;;;;;;;15.93;11.25;;;;;;;8.74;69.15;99944.95;1679373;84;21863;-68
2021/11/19 11:41:06;;;;;;;13.05;10.10;;;;;;;8.72;69.23;99953.20;1678500;84;21114;-69
2021/11/19 11:44:01;;;;;;;15.83;10.50;;;;;;;8.71;69.34;99949.46;1679485;84;21159;-69
2021/11/19 11:46:37;;;;;;;12.65;9.88;;;;;;;8.66;69.48;99949.72;1678598;85;20954;-69
2021/11/19 11:49:16;;;;;;;13.75;10.48;;;;;;;8.63;69.69;99952.89;1679028;85;21018;-69